createdAt,value
2016-12-08T00:00:23.032Z,0
2016-12-08T00:04:33.210Z,0
2016-12-08T00:05:14.971Z,0
2016-12-08T00:05:56.725Z,0
2016-12-08T00:06:38.393Z,0
2016-12-08T00:07:19.809Z,0
2016-12-08T00:09:19.716Z,0
2016-12-08T00:11:40.550Z,0
2016-12-08T00:12:22.268Z,0
2016-12-08T00:13:03.885Z,0
2016-12-08T00:13:45.359Z,0
2016-12-08T00:15:45.452Z,0
2016-12-08T00:16:27.229Z,0
2016-12-08T00:17:08.952Z,0
2016-12-08T00:17:50.722Z,0
2016-12-08T00:18:32.333Z,0
2016-12-08T00:19:13.950Z,0
2016-12-08T00:19:55.685Z,0
2016-12-08T00:22:11.011Z,0
2016-12-08T00:22:52.751Z,0
2016-12-08T00:23:34.510Z,0
2016-12-08T00:24:16.208Z,0
2016-12-08T00:24:57.951Z,0
2016-12-08T00:27:34.231Z,0
2016-12-08T00:28:15.867Z,0
2016-12-08T00:28:57.644Z,0
2016-12-08T00:29:39.357Z,0
2016-12-08T00:30:20.975Z,0
2016-12-08T00:34:10.528Z,0
2016-12-08T00:34:52.247Z,0
2016-12-08T00:35:33.994Z,0
2016-12-08T00:36:15.720Z,0
2016-12-08T00:40:05.224Z,0
2016-12-08T00:40:46.982Z,0
2016-12-08T00:41:28.591Z,0
2016-12-08T00:45:22.919Z,0
2016-12-08T00:46:04.649Z,0
2016-12-08T00:46:46.380Z,0
2016-12-08T00:47:28.174Z,0
2016-12-08T00:48:09.950Z,0
2016-12-08T00:48:51.696Z,0
2016-12-08T00:49:33.257Z,0
2016-12-08T00:50:14.972Z,0
2016-12-08T00:52:46.128Z,0
2016-12-08T00:53:27.853Z,0
2016-12-08T00:54:09.571Z,0
2016-12-08T00:54:51.324Z,0
2016-12-08T00:55:33.080Z,0
2016-12-08T00:56:14.750Z,0
2016-12-08T00:56:56.526Z,0
2016-12-08T00:57:38.258Z,0
2016-12-08T00:59:38.412Z,0
2016-12-08T01:00:20.158Z,0
2016-12-08T01:02:20.122Z,0
2016-12-08T01:03:01.827Z,0
2016-12-08T01:05:01.916Z,0
2016-12-08T01:05:43.053Z,0
2016-12-08T01:07:58.443Z,0
2016-12-08T01:08:40.201Z,0
2016-12-08T01:12:50.103Z,0
2016-12-08T01:15:05.544Z,0
2016-12-08T01:15:47.306Z,0
2016-12-08T01:16:29.032Z,0
2016-12-08T01:17:10.813Z,0
2016-12-08T01:17:52.453Z,0
2016-12-08T01:18:33.963Z,0
2016-12-08T01:21:05.168Z,0
2016-12-08T01:21:46.896Z,0
2016-12-08T01:22:28.625Z,0
2016-12-08T01:24:49.323Z,0
2016-12-08T01:25:31.048Z,0
2016-12-08T01:27:51.805Z,0
2016-12-08T01:28:33.656Z,0
2016-12-08T01:29:15.465Z,0
2016-12-08T01:31:15.368Z,0
2016-12-08T01:33:30.748Z,0
2016-12-08T01:34:12.523Z,0
2016-12-08T01:34:54.135Z,0
2016-12-08T01:35:35.629Z,0
2016-12-08T01:36:17.314Z,0
2016-12-08T01:36:59.009Z,0
2016-12-08T01:37:40.589Z,0
2016-12-08T01:39:40.783Z,0
2016-12-08T01:42:01.369Z,0
2016-12-08T01:44:32.308Z,0
2016-12-08T01:45:14.077Z,0
2016-12-08T01:45:55.880Z,0
2016-12-08T01:46:37.499Z,0
2016-12-08T01:49:08.541Z,0
2016-12-08T01:49:50.075Z,0
2016-12-08T01:50:31.707Z,0
2016-12-08T01:51:13.357Z,0
2016-12-08T01:51:55.086Z,0
2016-12-08T01:52:36.451Z,0
2016-12-08T01:54:51.859Z,0
2016-12-08T01:55:33.603Z,0
2016-12-08T01:56:15.189Z,0
2016-12-08T01:56:56.892Z,0
2016-12-08T01:57:38.534Z,0
2016-12-08T01:58:20.256Z,0
2016-12-08T01:59:02.012Z,0
2016-12-08T02:01:31.978Z,0
2016-12-08T02:02:12.494Z,0
2016-12-08T02:02:53.024Z,0
2016-12-08T02:03:33.561Z,0
2016-12-08T02:04:14.100Z,0
2016-12-08T02:04:54.631Z,0
2016-12-08T02:05:35.130Z,0
2016-12-08T02:06:15.665Z,0
2016-12-08T02:06:56.190Z,0
2016-12-08T02:07:36.713Z,0
2016-12-08T02:08:17.237Z,0
2016-12-08T02:08:57.764Z,0
2016-12-08T02:09:38.294Z,0
2016-12-08T02:10:18.818Z,0
2016-12-08T02:10:59.350Z,0
2016-12-08T02:11:39.893Z,0
2016-12-08T02:12:20.427Z,0
2016-12-08T02:13:00.973Z,0
2016-12-08T02:13:41.492Z,0
2016-12-08T02:14:22.032Z,0
2016-12-08T02:15:02.560Z,0
2016-12-08T02:15:43.085Z,0
2016-12-08T02:16:23.639Z,0
2016-12-08T02:17:04.138Z,0
2016-12-08T02:17:44.670Z,0
2016-12-08T02:18:25.197Z,0
2016-12-08T02:19:05.726Z,0
2016-12-08T02:19:46.257Z,0
2016-12-08T02:20:26.808Z,0
2016-12-08T02:21:07.337Z,0
2016-12-08T02:21:47.877Z,0
2016-12-08T02:22:28.414Z,0
2016-12-08T02:23:08.942Z,0
2016-12-08T02:23:49.468Z,0
2016-12-08T02:24:29.992Z,0
2016-12-08T02:25:10.503Z,0
2016-12-08T02:25:51.025Z,0
2016-12-08T02:26:31.555Z,0
2016-12-08T02:27:12.085Z,0
2016-12-08T02:27:52.596Z,0
2016-12-08T02:28:33.129Z,0
2016-12-08T02:29:13.648Z,0
2016-12-08T02:29:54.186Z,0
2016-12-08T02:30:34.704Z,0
2016-12-08T02:31:15.217Z,0
2016-12-08T02:31:55.725Z,0
2016-12-08T02:32:36.252Z,0
2016-12-08T02:33:16.785Z,0
2016-12-08T02:33:57.324Z,0
2016-12-08T02:34:37.837Z,0
2016-12-08T02:35:18.373Z,0
2016-12-08T02:35:58.895Z,0
2016-12-08T02:36:39.425Z,0
2016-12-08T02:37:19.982Z,0
2016-12-08T02:38:00.517Z,0
2016-12-08T02:38:41.066Z,0
2016-12-08T02:39:21.578Z,0
2016-12-08T02:40:02.111Z,0
2016-12-08T02:40:42.635Z,0
2016-12-08T02:41:23.161Z,0
2016-12-08T02:42:03.698Z,0
2016-12-08T02:42:44.232Z,0
2016-12-08T02:43:24.758Z,0
2016-12-08T02:44:05.297Z,0
2016-12-08T02:44:45.833Z,0
2016-12-08T02:45:26.364Z,0
2016-12-08T02:46:06.899Z,0
2016-12-08T02:46:47.419Z,0
2016-12-08T02:47:27.935Z,0
2016-12-08T02:48:08.451Z,0
2016-12-08T02:48:48.971Z,0
2016-12-08T02:49:29.493Z,0
2016-12-08T02:50:10.014Z,0
2016-12-08T02:50:50.543Z,0
2016-12-08T02:51:31.062Z,0
2016-12-08T02:52:11.593Z,0
2016-12-08T02:52:52.112Z,0
2016-12-08T02:53:32.649Z,0
2016-12-08T02:54:13.180Z,0
2016-12-08T02:54:53.705Z,0
2016-12-08T02:55:34.233Z,0
2016-12-08T02:56:14.739Z,0
2016-12-08T02:56:55.260Z,0
2016-12-08T02:57:35.786Z,0
2016-12-08T02:58:16.300Z,0
2016-12-08T02:58:56.821Z,0
2016-12-08T02:59:37.343Z,0
2016-12-08T03:00:17.858Z,0
2016-12-08T03:00:58.404Z,0
2016-12-08T03:01:38.921Z,0
2016-12-08T03:02:19.453Z,0
2016-12-08T03:02:59.992Z,0
2016-12-08T03:03:40.528Z,0
2016-12-08T03:04:21.080Z,0
2016-12-08T03:05:01.607Z,0
2016-12-08T03:05:42.140Z,0
2016-12-08T03:06:22.635Z,0
2016-12-08T03:07:03.144Z,0
2016-12-08T03:07:43.679Z,0
2016-12-08T03:08:24.196Z,0
2016-12-08T03:09:04.733Z,0
2016-12-08T03:09:45.238Z,0
2016-12-08T03:10:25.757Z,0
2016-12-08T03:11:06.275Z,0
2016-12-08T03:11:46.802Z,0
2016-12-08T03:12:27.329Z,0
2016-12-08T03:13:07.849Z,0
2016-12-08T03:13:48.393Z,0
2016-12-08T03:14:28.911Z,0
2016-12-08T03:15:09.422Z,0
2016-12-08T03:15:49.960Z,0
2016-12-08T03:16:30.487Z,0
2016-12-08T03:17:11.015Z,0
2016-12-08T03:17:51.610Z,0
2016-12-08T03:18:32.129Z,0
2016-12-08T03:19:12.658Z,0
2016-12-08T03:19:53.191Z,0
2016-12-08T03:20:33.713Z,0
2016-12-08T03:21:14.248Z,0
2016-12-08T03:21:54.771Z,0
2016-12-08T03:22:35.314Z,0
2016-12-08T03:23:15.846Z,0
2016-12-08T03:23:56.366Z,0
2016-12-08T03:24:36.869Z,0
2016-12-08T03:25:17.387Z,0
2016-12-08T03:25:57.899Z,0
2016-12-08T03:26:38.436Z,0
2016-12-08T03:27:18.967Z,0
2016-12-08T03:27:59.495Z,0
2016-12-08T03:28:40.028Z,0
2016-12-08T03:29:20.560Z,0
2016-12-08T03:30:01.069Z,0
2016-12-08T03:30:41.616Z,0
2016-12-08T03:31:22.132Z,0
2016-12-08T03:32:02.652Z,0
2016-12-08T03:32:43.176Z,0
2016-12-08T03:33:23.697Z,0
2016-12-08T03:34:04.220Z,0
2016-12-08T03:34:44.753Z,0
2016-12-08T03:35:25.281Z,0
2016-12-08T03:36:05.798Z,0
2016-12-08T03:36:46.334Z,0
2016-12-08T03:37:26.855Z,0
2016-12-08T03:38:07.421Z,0
2016-12-08T03:38:47.958Z,0
2016-12-08T03:39:28.485Z,0
2016-12-08T03:40:09.010Z,0
2016-12-08T03:40:49.540Z,0
2016-12-08T03:41:30.059Z,0
2016-12-08T03:42:10.579Z,0
2016-12-08T03:42:51.102Z,0
2016-12-08T03:43:31.620Z,0
2016-12-08T03:44:12.165Z,0
2016-12-08T03:44:52.698Z,0
2016-12-08T03:45:33.217Z,0
2016-12-08T03:46:13.738Z,0
2016-12-08T03:46:54.257Z,0
2016-12-08T03:47:34.791Z,0
2016-12-08T03:48:15.333Z,0
2016-12-08T03:48:55.866Z,0
2016-12-08T03:49:36.371Z,0
2016-12-08T03:50:16.909Z,0
2016-12-08T03:50:57.431Z,0
2016-12-08T03:51:37.954Z,0
2016-12-08T03:52:18.463Z,0
2016-12-08T03:52:59.009Z,0
2016-12-08T03:53:39.522Z,0
2016-12-08T03:54:20.042Z,0
2016-12-08T03:55:00.561Z,0
2016-12-08T03:55:41.111Z,0
2016-12-08T03:56:21.624Z,0
2016-12-08T03:57:02.158Z,0
2016-12-08T03:57:42.679Z,0
2016-12-08T03:58:23.211Z,0
2016-12-08T03:59:03.736Z,0
2016-12-08T03:59:44.269Z,0
2016-12-08T04:00:24.807Z,0
2016-12-08T04:01:05.327Z,0
2016-12-08T04:01:45.867Z,0
2016-12-08T04:02:26.414Z,0
2016-12-08T04:03:06.930Z,0
2016-12-08T04:03:47.452Z,0
2016-12-08T04:04:28.022Z,0
2016-12-08T04:05:08.553Z,0
2016-12-08T04:05:49.101Z,0
2016-12-08T04:06:29.630Z,0
2016-12-08T04:07:10.141Z,0
2016-12-08T04:07:50.668Z,0
2016-12-08T04:08:31.199Z,0
2016-12-08T04:09:11.722Z,0
2016-12-08T04:09:52.255Z,0
2016-12-08T04:10:32.786Z,0
2016-12-08T04:11:13.304Z,0
2016-12-08T04:11:53.830Z,0
2016-12-08T04:12:34.369Z,0
2016-12-08T04:13:14.891Z,0
2016-12-08T04:13:55.402Z,0
2016-12-08T04:16:14.743Z,0
2016-12-08T04:16:55.264Z,0
2016-12-08T04:17:35.805Z,0
2016-12-08T04:18:16.322Z,0
2016-12-08T04:18:56.847Z,0
2016-12-08T04:19:37.403Z,0
2016-12-08T04:20:17.933Z,0
2016-12-08T04:20:58.480Z,0
2016-12-08T04:21:39.105Z,0
2016-12-08T04:22:19.627Z,0
2016-12-08T04:23:00.156Z,0
2016-12-08T04:23:40.695Z,0
2016-12-08T04:24:21.233Z,0
2016-12-08T04:25:01.765Z,0
2016-12-08T04:25:42.275Z,0
2016-12-08T04:26:22.801Z,0
2016-12-08T04:27:03.319Z,0
2016-12-08T04:27:43.860Z,0
2016-12-08T04:28:24.393Z,0
2016-12-08T04:29:04.898Z,0
2016-12-08T04:29:45.430Z,0
2016-12-08T04:30:25.960Z,0
2016-12-08T04:31:06.482Z,0
2016-12-08T04:31:47.006Z,0
2016-12-08T04:32:27.550Z,0
2016-12-08T04:33:08.083Z,0
2016-12-08T04:33:48.614Z,0
2016-12-08T04:34:29.127Z,0
2016-12-08T04:35:09.660Z,0
2016-12-08T04:35:50.205Z,0
2016-12-08T04:36:30.731Z,0
2016-12-08T04:37:11.268Z,0
2016-12-08T04:37:51.857Z,0
2016-12-08T04:38:32.384Z,0
2016-12-08T04:39:12.922Z,0
2016-12-08T04:39:53.460Z,0
2016-12-08T04:40:33.970Z,0
2016-12-08T04:41:14.523Z,0
2016-12-08T04:41:55.056Z,0
2016-12-08T04:42:35.609Z,0
2016-12-08T04:43:16.128Z,0
2016-12-08T04:43:56.651Z,0
2016-12-08T04:44:37.179Z,0
2016-12-08T04:45:17.711Z,0
2016-12-08T04:45:58.240Z,0
2016-12-08T04:46:38.755Z,0
2016-12-08T04:47:19.276Z,0
2016-12-08T04:47:59.810Z,0
2016-12-08T04:48:40.343Z,0
2016-12-08T04:49:20.878Z,0
2016-12-08T04:50:01.405Z,0
2016-12-08T04:50:41.935Z,0
2016-12-08T04:51:22.470Z,0
2016-12-08T04:52:02.963Z,0
2016-12-08T04:52:43.511Z,0
2016-12-08T04:53:24.042Z,0
2016-12-08T04:54:04.585Z,0
2016-12-08T04:54:45.135Z,0
2016-12-08T04:55:25.665Z,0
2016-12-08T04:56:06.190Z,0
2016-12-08T04:56:46.712Z,0
2016-12-08T04:57:27.248Z,0
2016-12-08T04:58:07.778Z,0
2016-12-08T04:58:48.305Z,0
2016-12-08T04:59:28.834Z,0
2016-12-08T05:00:09.353Z,0
2016-12-08T05:00:49.893Z,0
2016-12-08T05:01:30.430Z,0
2016-12-08T05:02:10.942Z,0
2016-12-08T05:02:51.486Z,0
2016-12-08T05:03:31.996Z,0
2016-12-08T05:04:12.527Z,0
2016-12-08T05:04:53.055Z,0
2016-12-08T05:05:33.578Z,0
2016-12-08T05:06:14.096Z,0
2016-12-08T05:06:54.632Z,0
2016-12-08T05:07:35.172Z,0
2016-12-08T05:08:15.693Z,0
2016-12-08T05:08:56.235Z,0
2016-12-08T05:09:36.758Z,0
2016-12-08T05:10:17.287Z,0
2016-12-08T05:10:57.826Z,0
2016-12-08T05:11:38.344Z,0
2016-12-08T05:12:18.905Z,0
2016-12-08T05:12:59.419Z,0
2016-12-08T05:13:39.952Z,0
2016-12-08T05:14:20.488Z,0
2016-12-08T05:15:01.026Z,0
2016-12-08T05:15:41.580Z,0
2016-12-08T05:16:22.113Z,0
2016-12-08T05:17:02.644Z,0
2016-12-08T05:17:43.174Z,0
2016-12-08T05:18:23.688Z,0
2016-12-08T05:19:04.234Z,0
2016-12-08T05:19:44.766Z,0
2016-12-08T05:20:25.294Z,0
2016-12-08T05:21:05.818Z,0
2016-12-08T05:21:46.337Z,0
2016-12-08T05:22:26.882Z,0
2016-12-08T05:23:07.400Z,0
2016-12-08T05:23:47.945Z,0
2016-12-08T05:24:28.469Z,0
2016-12-08T05:25:08.992Z,0
2016-12-08T05:25:49.533Z,0
2016-12-08T05:26:30.068Z,0
2016-12-08T05:27:10.599Z,0
2016-12-08T05:27:51.108Z,0
2016-12-08T05:28:31.640Z,0
2016-12-08T05:29:12.172Z,0
2016-12-08T05:29:52.700Z,0
2016-12-08T05:30:33.244Z,0
2016-12-08T05:31:13.766Z,0
2016-12-08T05:31:54.289Z,0
2016-12-08T05:32:34.817Z,0
2016-12-08T05:33:15.337Z,0
2016-12-08T05:33:55.848Z,0
2016-12-08T05:34:36.389Z,0
2016-12-08T05:35:16.909Z,0
2016-12-08T05:35:57.491Z,0
2016-12-08T05:36:38.028Z,0
2016-12-08T05:37:18.579Z,0
2016-12-08T05:37:59.105Z,0
2016-12-08T05:38:39.641Z,0
2016-12-08T05:39:20.167Z,0
2016-12-08T05:40:00.698Z,0
2016-12-08T05:40:41.227Z,0
2016-12-08T05:41:21.759Z,0
2016-12-08T05:42:02.312Z,0
2016-12-08T05:42:42.843Z,0
2016-12-08T05:43:23.360Z,0
2016-12-08T05:44:03.898Z,0
2016-12-08T05:44:44.428Z,0
2016-12-08T05:45:24.942Z,0
2016-12-08T05:46:05.462Z,0
2016-12-08T05:46:45.998Z,0
2016-12-08T05:47:26.523Z,0
2016-12-08T05:48:07.064Z,0
2016-12-08T05:48:47.585Z,0
2016-12-08T05:49:28.113Z,0
2016-12-08T05:50:08.646Z,0
2016-12-08T05:50:49.190Z,0
2016-12-08T05:51:29.704Z,0
2016-12-08T05:52:10.228Z,0
2016-12-08T05:52:50.753Z,0
2016-12-08T05:53:31.272Z,0
2016-12-08T05:54:11.819Z,0
2016-12-08T05:54:52.340Z,0
2016-12-08T05:55:32.867Z,0
2016-12-08T05:56:13.403Z,0
2016-12-08T05:56:53.939Z,0
2016-12-08T05:57:34.450Z,0
2016-12-08T05:58:14.978Z,0
2016-12-08T05:58:55.509Z,0
2016-12-08T05:59:36.054Z,0
2016-12-08T06:00:16.573Z,0
2016-12-08T06:00:57.107Z,0
2016-12-08T06:01:37.633Z,0
2016-12-08T06:02:18.159Z,0
2016-12-08T06:02:58.697Z,0
2016-12-08T06:03:39.224Z,0
2016-12-08T06:04:19.755Z,0
2016-12-08T06:05:00.266Z,0
2016-12-08T06:05:40.780Z,0
2016-12-08T06:06:21.288Z,0
2016-12-08T06:07:01.824Z,0
2016-12-08T06:07:42.362Z,0
2016-12-08T06:08:22.891Z,0
2016-12-08T06:09:03.408Z,0
2016-12-08T06:09:43.935Z,0
2016-12-08T06:10:24.462Z,0
2016-12-08T06:11:04.986Z,0
2016-12-08T06:11:45.520Z,0
2016-12-08T06:12:26.044Z,0
2016-12-08T06:13:06.574Z,0
2016-12-08T06:13:47.091Z,0
2016-12-08T06:14:27.629Z,0
2016-12-08T06:15:08.155Z,0
2016-12-08T06:15:48.680Z,0
2016-12-08T06:16:29.212Z,0
2016-12-08T06:17:09.762Z,0
2016-12-08T06:17:50.326Z,0
2016-12-08T06:18:30.855Z,0
2016-12-08T06:19:11.371Z,0
2016-12-08T06:19:51.902Z,0
2016-12-08T06:20:32.434Z,0
2016-12-08T06:21:12.971Z,0
2016-12-08T06:21:53.503Z,0
2016-12-08T06:22:34.034Z,0
2016-12-08T06:23:14.548Z,0
2016-12-08T06:23:55.079Z,0
2016-12-08T06:24:35.615Z,0
2016-12-08T06:25:16.179Z,0
2016-12-08T06:25:56.714Z,0
2016-12-08T06:26:37.237Z,0
2016-12-08T06:27:17.764Z,0
2016-12-08T06:27:58.290Z,0
2016-12-08T06:28:38.826Z,0
2016-12-08T06:29:19.355Z,0
2016-12-08T06:29:59.873Z,0
2016-12-08T06:30:40.403Z,0
2016-12-08T06:31:20.932Z,0
2016-12-08T06:32:01.464Z,0
2016-12-08T06:32:42.028Z,0
2016-12-08T06:33:22.546Z,0
2016-12-08T06:34:03.077Z,0
2016-12-08T06:34:43.591Z,0
2016-12-08T06:35:24.118Z,0
2016-12-08T06:36:04.643Z,0
2016-12-08T06:36:45.159Z,0
2016-12-08T06:37:25.700Z,0
2016-12-08T06:38:06.231Z,0
2016-12-08T06:38:46.781Z,0
2016-12-08T06:39:27.315Z,0
2016-12-08T06:40:07.841Z,0
2016-12-08T06:40:48.366Z,0
2016-12-08T06:41:28.885Z,0
2016-12-08T06:42:09.410Z,0
2016-12-08T06:42:49.947Z,0
2016-12-08T06:43:30.476Z,0
2016-12-08T06:44:11.000Z,0
2016-12-08T06:44:51.510Z,0
2016-12-08T06:45:32.048Z,0
2016-12-08T06:46:12.606Z,0
2016-12-08T06:46:53.094Z,0
2016-12-08T06:47:33.616Z,0
2016-12-08T06:48:14.152Z,0
2016-12-08T06:48:54.677Z,0
2016-12-08T06:49:35.197Z,0
2016-12-08T06:50:15.726Z,0
2016-12-08T06:50:56.251Z,0
2016-12-08T06:51:36.771Z,4
2016-12-08T06:52:17.309Z,4
2016-12-08T06:52:57.841Z,4
2016-12-08T06:53:38.362Z,0
2016-12-08T06:54:18.916Z,0
2016-12-08T06:54:59.436Z,4
2016-12-08T06:55:39.947Z,4
2016-12-08T06:56:20.512Z,4
2016-12-08T06:57:01.044Z,4
2016-12-08T06:57:41.590Z,4
2016-12-08T06:58:22.107Z,4
2016-12-08T06:59:02.645Z,8
2016-12-08T06:59:43.152Z,4
2016-12-08T07:00:23.692Z,8
2016-12-08T07:01:04.227Z,8
2016-12-08T07:01:44.757Z,8
2016-12-08T07:02:25.275Z,8
2016-12-08T07:03:05.802Z,12
2016-12-08T07:03:46.349Z,12
2016-12-08T07:04:26.862Z,12
2016-12-08T07:05:07.404Z,12
2016-12-08T07:05:47.923Z,12
2016-12-08T07:06:28.444Z,16
2016-12-08T07:07:08.977Z,20
2016-12-08T07:07:49.512Z,20
2016-12-08T07:08:30.058Z,24
2016-12-08T07:09:10.588Z,28
2016-12-08T07:09:51.121Z,28
2016-12-08T07:10:31.647Z,32
2016-12-08T07:11:12.164Z,36
2016-12-08T07:11:52.677Z,36
2016-12-08T07:12:33.189Z,44
2016-12-08T07:13:13.714Z,44
2016-12-08T07:13:54.247Z,44
2016-12-08T07:14:34.771Z,48
2016-12-08T07:15:15.315Z,52
2016-12-08T07:15:55.800Z,52
2016-12-08T07:16:36.324Z,56
2016-12-08T07:17:16.847Z,56
2016-12-08T07:17:57.387Z,60
2016-12-08T07:18:37.954Z,60
2016-12-08T07:19:18.466Z,64
2016-12-08T07:19:59.014Z,68
2016-12-08T07:20:39.557Z,68
2016-12-08T07:21:20.082Z,68
2016-12-08T07:22:00.613Z,72
2016-12-08T07:22:41.149Z,76
2016-12-08T07:23:21.687Z,76
2016-12-08T07:24:02.222Z,84
2016-12-08T07:24:42.723Z,84
2016-12-08T07:25:23.261Z,92
2016-12-08T07:26:03.814Z,92
2016-12-08T07:26:44.317Z,96
2016-12-08T07:27:24.857Z,100
2016-12-08T07:28:05.363Z,104
2016-12-08T07:28:45.903Z,108
2016-12-08T07:29:26.429Z,112
2016-12-08T07:30:06.912Z,116
2016-12-08T07:30:47.453Z,124
2016-12-08T07:31:29.143Z,132
2016-12-08T07:32:09.694Z,136
2016-12-08T07:32:50.232Z,148
2016-12-08T07:33:30.759Z,152
2016-12-08T07:34:11.275Z,160
2016-12-08T07:34:51.807Z,168
2016-12-08T07:35:32.338Z,176
2016-12-08T07:36:12.858Z,180
2016-12-08T07:36:53.399Z,188
2016-12-08T07:37:33.937Z,200
2016-12-08T07:38:14.457Z,208
2016-12-08T07:38:54.992Z,216
2016-12-08T07:39:35.537Z,224
2016-12-08T07:40:16.072Z,236
2016-12-08T07:40:56.609Z,244
2016-12-08T07:41:37.145Z,248
2016-12-08T07:42:17.688Z,256
2016-12-08T07:42:58.218Z,260
2016-12-08T07:43:38.751Z,264
2016-12-08T07:44:19.292Z,276
2016-12-08T07:44:59.812Z,288
2016-12-08T07:45:40.367Z,292
2016-12-08T07:46:20.911Z,292
2016-12-08T07:47:01.447Z,300
2016-12-08T07:47:41.969Z,300
2016-12-08T07:48:22.491Z,308
2016-12-08T07:49:03.011Z,316
2016-12-08T07:49:43.557Z,324
2016-12-08T07:50:24.096Z,332
2016-12-08T07:51:04.617Z,340
2016-12-08T07:51:45.165Z,348
2016-12-08T07:52:25.695Z,360
2016-12-08T07:53:06.239Z,368
2016-12-08T07:53:46.775Z,380
2016-12-08T07:54:27.311Z,392
2016-12-08T07:55:07.841Z,408
2016-12-08T07:55:48.376Z,416
2016-12-08T07:56:28.959Z,432
2016-12-08T07:57:09.478Z,440
2016-12-08T07:57:50.013Z,452
2016-12-08T07:58:30.532Z,460
2016-12-08T07:59:11.067Z,468
2016-12-08T07:59:51.596Z,476
2016-12-08T08:00:32.136Z,492
2016-12-08T08:01:12.667Z,512
2016-12-08T08:01:53.200Z,532
2016-12-08T08:02:33.735Z,548
2016-12-08T08:03:14.268Z,564
2016-12-08T08:03:54.796Z,580
2016-12-08T08:04:35.329Z,600
2016-12-08T08:05:15.865Z,620
2016-12-08T08:05:56.405Z,636
2016-12-08T08:06:36.932Z,648
2016-12-08T08:07:17.460Z,672
2016-12-08T08:07:57.972Z,688
2016-12-08T08:08:38.505Z,704
2016-12-08T08:09:19.033Z,724
2016-12-08T08:09:59.569Z,740
2016-12-08T08:10:40.093Z,760
2016-12-08T08:11:20.612Z,784
2016-12-08T08:12:01.142Z,804
2016-12-08T08:12:41.679Z,828
2016-12-08T08:13:22.201Z,848
2016-12-08T08:14:02.728Z,868
2016-12-08T08:14:43.258Z,880
2016-12-08T08:15:23.781Z,900
2016-12-08T08:16:04.325Z,916
2016-12-08T08:16:44.837Z,932
2016-12-08T08:17:25.365Z,948
2016-12-08T08:18:05.914Z,968
2016-12-08T08:18:46.430Z,980
2016-12-08T08:19:26.956Z,1000
2016-12-08T08:20:07.484Z,1020
2016-12-08T08:20:48.007Z,1044
2016-12-08T08:21:28.544Z,1064
2016-12-08T08:22:09.073Z,1092
2016-12-08T08:22:49.611Z,1116
2016-12-08T08:23:30.138Z,1140
2016-12-08T08:24:10.669Z,1156
2016-12-08T08:24:51.197Z,1184
2016-12-08T08:25:31.730Z,1216
2016-12-08T08:26:12.259Z,1252
2016-12-08T08:26:52.793Z,1296
2016-12-08T08:27:33.325Z,1340
2016-12-08T08:28:13.860Z,1384
2016-12-08T08:28:54.385Z,1428
2016-12-08T08:29:34.919Z,1460
2016-12-08T08:30:15.451Z,1476
2016-12-08T08:30:55.983Z,1496
2016-12-08T08:31:36.517Z,1524
2016-12-08T08:32:17.042Z,1548
2016-12-08T08:32:57.585Z,1564
2016-12-08T08:33:38.106Z,1572
2016-12-08T08:34:18.625Z,1600
2016-12-08T08:34:59.153Z,1620
2016-12-08T08:35:39.683Z,1656
2016-12-08T08:36:20.206Z,1708
2016-12-08T08:37:00.743Z,1780
2016-12-08T08:37:41.267Z,1864
2016-12-08T08:38:21.800Z,1912
2016-12-08T08:39:02.332Z,1920
2016-12-08T08:39:42.865Z,2000
2016-12-08T08:40:23.383Z,2112
2016-12-08T08:41:03.922Z,2220
2016-12-08T08:41:44.454Z,2320
2016-12-08T08:42:24.987Z,2368
2016-12-08T08:43:05.521Z,2512
2016-12-08T08:43:46.047Z,2632
2016-12-08T08:44:26.581Z,2724
2016-12-08T08:45:07.111Z,2888
2016-12-08T08:45:47.644Z,2900
2016-12-08T08:46:28.178Z,2880
2016-12-08T08:47:08.707Z,3088
2016-12-08T08:47:49.236Z,3240
2016-12-08T08:48:29.777Z,3296
2016-12-08T08:49:10.303Z,3196
2016-12-08T08:49:50.810Z,3264
2016-12-08T08:50:31.337Z,3284
2016-12-08T08:51:11.878Z,3612
2016-12-08T08:51:52.414Z,3848
2016-12-08T08:52:32.946Z,3728
2016-12-08T08:53:13.475Z,3348
2016-12-08T08:53:54.008Z,2932
2016-12-08T08:54:34.539Z,2804
2016-12-08T08:55:15.079Z,2748
2016-12-08T08:55:55.615Z,2632
2016-12-08T08:56:36.150Z,2608
2016-12-08T08:57:16.677Z,2828
2016-12-08T08:57:57.203Z,2876
2016-12-08T08:58:37.743Z,2788
2016-12-08T08:59:18.273Z,2748
2016-12-08T08:59:58.799Z,2840
2016-12-08T09:00:39.386Z,3084
2016-12-08T09:01:19.902Z,3528
2016-12-08T09:02:00.430Z,3868
2016-12-08T09:02:40.962Z,3584
2016-12-08T09:03:21.494Z,3504
2016-12-08T09:04:02.028Z,3320
2016-12-08T09:04:42.557Z,3364
2016-12-08T09:05:23.101Z,3304
2016-12-08T09:06:03.631Z,3068
2016-12-08T09:06:44.162Z,2984
2016-12-08T09:07:24.688Z,3000
2016-12-08T09:08:05.217Z,3336
2016-12-08T09:08:45.758Z,3736
2016-12-08T09:09:26.278Z,4272
2016-12-08T09:10:06.815Z,5276
2016-12-08T09:10:47.349Z,5428
2016-12-08T09:11:27.887Z,5544
2016-12-08T09:12:08.417Z,6084
2016-12-08T09:12:48.956Z,5776
2016-12-08T09:13:29.472Z,5704
2016-12-08T09:14:10.009Z,5804
2016-12-08T09:14:50.549Z,6800
2016-12-08T09:15:31.081Z,7456
2016-12-08T09:16:11.597Z,7572
2016-12-08T09:16:52.123Z,6764
2016-12-08T09:17:32.655Z,5588
2016-12-08T09:18:13.195Z,6008
2016-12-08T09:18:53.734Z,6864
2016-12-08T09:19:34.262Z,7660
2016-12-08T09:20:14.800Z,8408
2016-12-08T09:20:55.312Z,9472
2016-12-08T09:21:35.847Z,9000
2016-12-08T09:22:16.382Z,8904
2016-12-08T09:22:56.914Z,7180
2016-12-08T09:23:37.441Z,5376
2016-12-08T09:24:17.966Z,4124
2016-12-08T09:24:58.501Z,3932
2016-12-08T09:25:39.035Z,3992
2016-12-08T09:26:19.573Z,4700
2016-12-08T09:27:00.097Z,4036
2016-12-08T09:27:40.633Z,3252
2016-12-08T09:28:21.164Z,2932
2016-12-08T09:29:01.703Z,2944
2016-12-08T09:29:42.232Z,3036
2016-12-08T09:30:22.787Z,3388
2016-12-08T09:31:03.322Z,5000
2016-12-08T09:31:43.852Z,7036
2016-12-08T09:32:24.387Z,9388
2016-12-08T09:33:04.917Z,9188
2016-12-08T09:33:45.456Z,8236
2016-12-08T09:34:25.992Z,7648
2016-12-08T09:35:06.525Z,7464
2016-12-08T09:35:47.051Z,7416
2016-12-08T09:36:27.589Z,7064
2016-12-08T09:37:08.132Z,7364
2016-12-08T09:37:48.664Z,7676
2016-12-08T09:38:29.235Z,7044
2016-12-08T09:39:09.771Z,6996
2016-12-08T09:39:50.327Z,6700
2016-12-08T09:40:30.865Z,6504
2016-12-08T09:41:11.396Z,6640
2016-12-08T09:41:51.923Z,7080
2016-12-08T09:42:32.457Z,7668
2016-12-08T09:43:13.000Z,8244
2016-12-08T09:43:53.547Z,8660
2016-12-08T09:44:34.081Z,8888
2016-12-08T09:45:14.608Z,9016
2016-12-08T09:45:55.148Z,9156
2016-12-08T09:46:35.687Z,9332
2016-12-08T09:47:16.221Z,8032
2016-12-08T09:47:56.753Z,9300
2016-12-08T09:48:37.274Z,8292
2016-12-08T09:49:17.810Z,7660
2016-12-08T09:49:58.339Z,7904
2016-12-08T09:50:38.883Z,8640
2016-12-08T09:51:19.414Z,9256
2016-12-08T09:51:59.930Z,10332
2016-12-08T09:52:40.463Z,10840
2016-12-08T09:53:20.998Z,10896
2016-12-08T09:54:01.525Z,11044
2016-12-08T09:54:42.058Z,10580
2016-12-08T09:55:22.598Z,11356
2016-12-08T09:56:03.132Z,11000
2016-12-08T09:56:43.676Z,9824
2016-12-08T09:57:24.205Z,11020
2016-12-08T09:58:04.751Z,10960
2016-12-08T09:58:45.286Z,11456
2016-12-08T09:59:25.819Z,9912
2016-12-08T10:00:06.364Z,10180
2016-12-08T10:00:46.900Z,11492
2016-12-08T10:01:27.437Z,11292
2016-12-08T10:02:07.977Z,11980
2016-12-08T10:02:48.513Z,12432
2016-12-08T10:03:29.040Z,12572
2016-12-08T10:04:09.586Z,13172
2016-12-08T10:04:50.107Z,12096
2016-12-08T10:05:30.643Z,10612
2016-12-08T10:06:11.182Z,10312
2016-12-08T10:06:51.760Z,8652
2016-12-08T10:07:32.290Z,6556
2016-12-08T10:08:12.839Z,5888
2016-12-08T10:08:53.378Z,6660
2016-12-08T10:09:33.905Z,7776
2016-12-08T10:10:14.450Z,8348
2016-12-08T10:10:54.974Z,6420
2016-12-08T10:11:35.486Z,5076
2016-12-08T10:12:16.023Z,4724
2016-12-08T10:12:56.557Z,4520
2016-12-08T10:13:37.104Z,4516
2016-12-08T10:14:17.608Z,4600
2016-12-08T10:14:58.144Z,4872
2016-12-08T10:15:38.682Z,5308
2016-12-08T10:16:19.229Z,5316
2016-12-08T10:16:59.812Z,5592
2016-12-08T10:17:40.342Z,5604
2016-12-08T10:18:20.875Z,5564
2016-12-08T10:19:01.409Z,5616
2016-12-08T10:19:41.972Z,4512
2016-12-08T10:20:22.501Z,4516
2016-12-08T10:21:03.028Z,4984
2016-12-08T10:21:43.558Z,5160
2016-12-08T10:22:24.095Z,4820
2016-12-08T10:23:04.630Z,4424
2016-12-08T10:23:45.195Z,4216
2016-12-08T10:24:25.693Z,4312
2016-12-08T10:25:06.227Z,4416
2016-12-08T10:25:46.763Z,4308
2016-12-08T10:26:27.299Z,4224
2016-12-08T10:27:07.829Z,4268
2016-12-08T10:27:48.369Z,4612
2016-12-08T10:28:28.911Z,4832
2016-12-08T10:29:09.424Z,5832
2016-12-08T10:29:49.956Z,5416
2016-12-08T10:30:30.493Z,4684
2016-12-08T10:31:11.010Z,4244
2016-12-08T10:31:51.547Z,4132
2016-12-08T10:32:32.124Z,4220
2016-12-08T10:33:12.656Z,4224
2016-12-08T10:33:53.179Z,4276